sensor_id;sensor_type;location;lat;lon;timestamp;P1;durP1;ratioP1;P2;durP2;ratioP2
17151;SDS011;8691;50.828;4.700;2023-07-08T00:01:47;6.70;;;4.27;;
17151;SDS011;8691;50.828;4.700;2023-07-08T00:04:14;4.67;;;4.00;;
17151;SDS011;8691;50.828;4.700;2023-07-08T00:06:41;6.38;;;4.75;;
17151;SDS011;8691;50.828;4.700;2023-07-08T00:09:09;5.73;;;4.47;;
17151;SDS011;8691;50.828;4.700;2023-07-08T00:11:34;6.23;;;4.00;;
17151;SDS011;8691;50.828;4.700;2023-07-08T00:14:01;7.70;;;4.40;;
17151;SDS011;8691;50.828;4.700;2023-07-08T00:16:28;5.50;;;3.90;;
17151;SDS011;8691;50.828;4.700;2023-07-08T00:18:55;7.87;;;4.30;;
17151;SDS011;8691;50.828;4.700;2023-07-08T00:21:22;4.70;;;4.23;;
17151;SDS011;8691;50.828;4.700;2023-07-08T00:23:50;5.47;;;4.30;;
17151;SDS011;8691;50.828;4.700;2023-07-08T00:26:22;5.43;;;4.33;;
17151;SDS011;8691;50.828;4.700;2023-07-08T00:28:49;6.33;;;4.30;;
17151;SDS011;8691;50.828;4.700;2023-07-08T00:31:15;6.80;;;4.63;;
17151;SDS011;8691;50.828;4.700;2023-07-08T00:33:42;6.43;;;4.60;;
17151;SDS011;8691;50.828;4.700;2023-07-08T00:36:12;7.40;;;5.50;;
17151;SDS011;8691;50.828;4.700;2023-07-08T00:38:38;4.90;;;4.03;;
17151;SDS011;8691;50.828;4.700;2023-07-08T00:41:10;5.97;;;4.43;;
17151;SDS011;8691;50.828;4.700;2023-07-08T00:43:39;5.77;;;4.30;;
17151;SDS011;8691;50.828;4.700;2023-07-08T00:48:57;4.30;;;3.90;;
17151;SDS011;8691;50.828;4.700;2023-07-08T00:51:27;6.00;;;4.27;;
17151;SDS011;8691;50.828;4.700;2023-07-08T00:53:54;5.97;;;4.20;;
17151;SDS011;8691;50.828;4.700;2023-07-08T00:56:29;6.47;;;4.95;;
17151;SDS011;8691;50.828;4.700;2023-07-08T00:58:52;7.40;;;5.22;;
17151;SDS011;8691;50.828;4.700;2023-07-08T01:01:17;7.10;;;4.20;;
17151;SDS011;8691;50.828;4.700;2023-07-08T01:03:51;6.33;;;4.87;;
17151;SDS011;8691;50.828;4.700;2023-07-08T01:06:17;6.20;;;4.30;;
17151;SDS011;8691;50.828;4.700;2023-07-08T01:08:43;6.93;;;4.57;;
17151;SDS011;8691;50.828;4.700;2023-07-08T01:11:10;6.77;;;4.00;;
17151;SDS011;8691;50.828;4.700;2023-07-08T01:13:40;5.87;;;4.17;;
17151;SDS011;8691;50.828;4.700;2023-07-08T01:16:06;6.90;;;3.80;;
17151;SDS011;8691;50.828;4.700;2023-07-08T01:18:32;4.83;;;3.93;;
17151;SDS011;8691;50.828;4.700;2023-07-08T01:21:06;6.43;;;4.40;;
17151;SDS011;8691;50.828;4.700;2023-07-08T01:23:32;4.87;;;4.33;;
17151;SDS011;8691;50.828;4.700;2023-07-08T01:25:58;6.30;;;4.03;;
17151;SDS011;8691;50.828;4.700;2023-07-08T01:28:25;4.50;;;4.00;;
17151;SDS011;8691;50.828;4.700;2023-07-08T01:30:51;5.53;;;4.27;;
17151;SDS011;8691;50.828;4.700;2023-07-08T01:33:19;5.20;;;4.00;;
17151;SDS011;8691;50.828;4.700;2023-07-08T01:35:45;9.13;;;3.73;;
17151;SDS011;8691;50.828;4.700;2023-07-08T01:38:11;6.83;;;4.30;;
17151;SDS011;8691;50.828;4.700;2023-07-08T01:40:38;5.13;;;4.10;;
17151;SDS011;8691;50.828;4.700;2023-07-08T01:43:05;4.93;;;4.30;;
17151;SDS011;8691;50.828;4.700;2023-07-08T01:45:33;5.07;;;4.17;;
17151;SDS011;8691;50.828;4.700;2023-07-08T01:48:01;4.83;;;3.60;;
17151;SDS011;8691;50.828;4.700;2023-07-08T01:50:26;6.37;;;4.13;;
17151;SDS011;8691;50.828;4.700;2023-07-08T01:52:53;6.93;;;4.17;;
17151;SDS011;8691;50.828;4.700;2023-07-08T01:55:21;5.40;;;4.13;;
17151;SDS011;8691;50.828;4.700;2023-07-08T01:57:46;5.00;;;3.80;;
17151;SDS011;8691;50.828;4.700;2023-07-08T02:00:13;6.40;;;4.20;;
17151;SDS011;8691;50.828;4.700;2023-07-08T02:02:39;6.13;;;4.47;;
17151;SDS011;8691;50.828;4.700;2023-07-08T02:05:06;5.87;;;4.17;;
17151;SDS011;8691;50.828;4.700;2023-07-08T02:07:33;6.33;;;4.10;;
17151;SDS011;8691;50.828;4.700;2023-07-08T02:09:59;4.40;;;4.00;;
17151;SDS011;8691;50.828;4.700;2023-07-08T02:12:27;6.47;;;4.33;;
17151;SDS011;8691;50.828;4.700;2023-07-08T02:14:56;7.83;;;4.53;;
17151;SDS011;8691;50.828;4.700;2023-07-08T02:17:22;5.20;;;4.40;;
17151;SDS011;8691;50.828;4.700;2023-07-08T02:19:49;6.57;;;5.30;;
17151;SDS011;8691;50.828;4.700;2023-07-08T02:22:16;8.53;;;4.77;;
17151;SDS011;8691;50.828;4.700;2023-07-08T02:24:43;5.97;;;4.50;;
17151;SDS011;8691;50.828;4.700;2023-07-08T02:27:09;6.63;;;4.60;;
17151;SDS011;8691;50.828;4.700;2023-07-08T02:29:36;5.20;;;4.70;;
17151;SDS011;8691;50.828;4.700;2023-07-08T02:32:02;5.93;;;4.37;;
17151;SDS011;8691;50.828;4.700;2023-07-08T02:34:29;5.33;;;4.23;;
17151;SDS011;8691;50.828;4.700;2023-07-08T02:36:56;4.83;;;4.30;;
17151;SDS011;8691;50.828;4.700;2023-07-08T02:39:22;4.80;;;4.30;;
17151;SDS011;8691;50.828;4.700;2023-07-08T02:41:49;5.37;;;4.27;;
17151;SDS011;8691;50.828;4.700;2023-07-08T02:44:16;5.23;;;4.23;;
17151;SDS011;8691;50.828;4.700;2023-07-08T02:46:42;5.80;;;4.57;;
17151;SDS011;8691;50.828;4.700;2023-07-08T02:49:09;6.82;;;5.40;;
17151;SDS011;8691;50.828;4.700;2023-07-08T02:51:36;7.03;;;5.27;;
17151;SDS011;8691;50.828;4.700;2023-07-08T02:54:02;13.43;;;4.73;;
17151;SDS011;8691;50.828;4.700;2023-07-08T02:56:29;6.67;;;4.47;;
17151;SDS011;8691;50.828;4.700;2023-07-08T02:58:55;9.93;;;4.63;;
17151;SDS011;8691;50.828;4.700;2023-07-08T03:01:22;6.23;;;4.20;;
17151;SDS011;8691;50.828;4.700;2023-07-08T03:03:49;9.87;;;4.80;;
17151;SDS011;8691;50.828;4.700;2023-07-08T03:06:15;5.50;;;4.43;;
17151;SDS011;8691;50.828;4.700;2023-07-08T03:08:43;5.57;;;4.77;;
17151;SDS011;8691;50.828;4.700;2023-07-08T03:11:09;6.37;;;4.40;;
17151;SDS011;8691;50.828;4.700;2023-07-08T03:13:36;5.60;;;4.17;;
17151;SDS011;8691;50.828;4.700;2023-07-08T03:16:03;6.17;;;4.23;;
17151;SDS011;8691;50.828;4.700;2023-07-08T03:18:29;7.10;;;4.20;;
17151;SDS011;8691;50.828;4.700;2023-07-08T03:20:56;7.10;;;4.85;;
17151;SDS011;8691;50.828;4.700;2023-07-08T03:23:23;6.17;;;4.30;;
17151;SDS011;8691;50.828;4.700;2023-07-08T03:25:49;5.93;;;4.37;;
17151;SDS011;8691;50.828;4.700;2023-07-08T03:28:16;7.07;;;3.83;;
17151;SDS011;8691;50.828;4.700;2023-07-08T03:30:44;5.83;;;4.53;;
17151;SDS011;8691;50.828;4.700;2023-07-08T03:33:10;5.00;;;4.43;;
17151;SDS011;8691;50.828;4.700;2023-07-08T03:35:37;5.53;;;4.17;;
17151;SDS011;8691;50.828;4.700;2023-07-08T03:38:07;6.57;;;4.00;;
17151;SDS011;8691;50.828;4.700;2023-07-08T03:40:33;10.73;;;4.47;;
17151;SDS011;8691;50.828;4.700;2023-07-08T03:43:00;6.03;;;4.30;;
17151;SDS011;8691;50.828;4.700;2023-07-08T03:45:27;5.77;;;4.13;;
17151;SDS011;8691;50.828;4.700;2023-07-08T03:47:54;5.97;;;5.03;;
17151;SDS011;8691;50.828;4.700;2023-07-08T03:50:22;6.68;;;5.05;;
17151;SDS011;8691;50.828;4.700;2023-07-08T03:52:47;6.10;;;4.30;;
17151;SDS011;8691;50.828;4.700;2023-07-08T03:55:14;5.07;;;4.30;;
17151;SDS011;8691;50.828;4.700;2023-07-08T03:57:41;5.40;;;4.23;;
17151;SDS011;8691;50.828;4.700;2023-07-08T04:00:08;5.90;;;4.40;;
17151;SDS011;8691;50.828;4.700;2023-07-08T04:02:41;5.03;;;4.53;;
17151;SDS011;8691;50.828;4.700;2023-07-08T04:05:10;4.63;;;3.73;;
17151;SDS011;8691;50.828;4.700;2023-07-08T04:07:35;4.40;;;3.93;;
17151;SDS011;8691;50.828;4.700;2023-07-08T04:10:01;6.17;;;4.20;;
17151;SDS011;8691;50.828;4.700;2023-07-08T04:12:29;6.43;;;3.90;;
17151;SDS011;8691;50.828;4.700;2023-07-08T04:14:55;4.47;;;3.93;;
17151;SDS011;8691;50.828;4.700;2023-07-08T04:17:23;6.90;;;4.13;;
17151;SDS011;8691;50.828;4.700;2023-07-08T04:19:50;5.20;;;4.17;;
17151;SDS011;8691;50.828;4.700;2023-07-08T04:22:17;5.27;;;4.23;;
17151;SDS011;8691;50.828;4.700;2023-07-08T04:24:43;4.50;;;4.00;;
17151;SDS011;8691;50.828;4.700;2023-07-08T04:27:13;6.27;;;4.60;;
17151;SDS011;8691;50.828;4.700;2023-07-08T04:29:40;7.37;;;4.03;;
17151;SDS011;8691;50.828;4.700;2023-07-08T04:32:07;5.97;;;4.78;;
17151;SDS011;8691;50.828;4.700;2023-07-08T04:34:34;8.98;;;5.20;;
17151;SDS011;8691;50.828;4.700;2023-07-08T04:37:00;6.72;;;5.00;;
17151;SDS011;8691;50.828;4.700;2023-07-08T04:39:27;6.70;;;4.40;;
17151;SDS011;8691;50.828;4.700;2023-07-08T04:41:54;5.03;;;3.70;;
17151;SDS011;8691;50.828;4.700;2023-07-08T04:44:20;5.00;;;4.20;;
17151;SDS011;8691;50.828;4.700;2023-07-08T04:46:51;4.83;;;4.00;;
17151;SDS011;8691;50.828;4.700;2023-07-08T04:49:17;7.37;;;4.47;;
17151;SDS011;8691;50.828;4.700;2023-07-08T04:51:43;7.07;;;3.63;;
17151;SDS011;8691;50.828;4.700;2023-07-08T04:54:10;7.53;;;4.00;;
17151;SDS011;8691;50.828;4.700;2023-07-08T04:56:38;6.07;;;4.10;;
17151;SDS011;8691;50.828;4.700;2023-07-08T04:59:03;6.60;;;4.20;;
17151;SDS011;8691;50.828;4.700;2023-07-08T05:01:31;5.72;;;5.20;;
17151;SDS011;8691;50.828;4.700;2023-07-08T05:03:58;5.43;;;4.40;;
17151;SDS011;8691;50.828;4.700;2023-07-08T05:06:25;5.87;;;4.40;;
17151;SDS011;8691;50.828;4.700;2023-07-08T05:08:51;7.00;;;5.00;;
17151;SDS011;8691;50.828;4.700;2023-07-08T05:11:19;5.20;;;4.23;;
17151;SDS011;8691;50.828;4.700;2023-07-08T05:13:45;4.33;;;3.90;;
17151;SDS011;8691;50.828;4.700;2023-07-08T05:16:13;5.07;;;4.30;;
17151;SDS011;8691;50.828;4.700;2023-07-08T05:18:39;9.53;;;4.53;;
17151;SDS011;8691;50.828;4.700;2023-07-08T05:21:07;5.90;;;4.93;;
17151;SDS011;8691;50.828;4.700;2023-07-08T05:23:33;5.73;;;4.53;;
17151;SDS011;8691;50.828;4.700;2023-07-08T05:26:01;6.43;;;4.90;;
17151;SDS011;8691;50.828;4.700;2023-07-08T05:28:27;5.93;;;4.53;;
17151;SDS011;8691;50.828;4.700;2023-07-08T05:30:54;8.23;;;5.07;;
17151;SDS011;8691;50.828;4.700;2023-07-08T05:33:24;5.40;;;4.63;;
17151;SDS011;8691;50.828;4.700;2023-07-08T05:35:47;6.33;;;4.80;;
17151;SDS011;8691;50.828;4.700;2023-07-08T05:38:14;5.83;;;4.37;;
17151;SDS011;8691;50.828;4.700;2023-07-08T05:40:41;8.10;;;4.60;;
17151;SDS011;8691;50.828;4.700;2023-07-08T05:43:08;6.20;;;4.70;;
17151;SDS011;8691;50.828;4.700;2023-07-08T05:45:35;5.62;;;4.38;;
17151;SDS011;8691;50.828;4.700;2023-07-08T05:48:03;5.97;;;4.28;;
17151;SDS011;8691;50.828;4.700;2023-07-08T05:50:31;4.85;;;4.45;;
17151;SDS011;8691;50.828;4.700;2023-07-08T05:52:58;7.88;;;4.70;;
17151;SDS011;8691;50.828;4.700;2023-07-08T05:55:26;5.03;;;4.40;;
17151;SDS011;8691;50.828;4.700;2023-07-08T05:57:53;7.32;;;4.88;;
17151;SDS011;8691;50.828;4.700;2023-07-08T06:00:20;6.62;;;4.57;;
17151;SDS011;8691;50.828;4.700;2023-07-08T06:02:47;5.75;;;4.70;;
17151;SDS011;8691;50.828;4.700;2023-07-08T06:05:14;5.63;;;4.53;;
17151;SDS011;8691;50.828;4.700;2023-07-08T06:07:41;5.82;;;4.82;;
17151;SDS011;8691;50.828;4.700;2023-07-08T06:10:08;5.00;;;4.43;;
17151;SDS011;8691;50.828;4.700;2023-07-08T06:12:35;5.73;;;4.93;;
17151;SDS011;8691;50.828;4.700;2023-07-08T06:15:02;7.50;;;5.00;;
17151;SDS011;8691;50.828;4.700;2023-07-08T06:17:29;6.30;;;4.73;;
17151;SDS011;8691;50.828;4.700;2023-07-08T06:19:56;8.23;;;5.15;;
17151;SDS011;8691;50.828;4.700;2023-07-08T06:22:23;6.67;;;4.50;;
17151;SDS011;8691;50.828;4.700;2023-07-08T06:24:50;7.72;;;4.60;;
17151;SDS011;8691;50.828;4.700;2023-07-08T06:27:18;6.20;;;4.05;;
17151;SDS011;8691;50.828;4.700;2023-07-08T06:29:45;5.30;;;4.50;;
17151;SDS011;8691;50.828;4.700;2023-07-08T06:32:11;6.47;;;5.17;;
17151;SDS011;8691;50.828;4.700;2023-07-08T06:34:38;6.97;;;5.00;;
17151;SDS011;8691;50.828;4.700;2023-07-08T06:37:06;8.20;;;5.18;;
17151;SDS011;8691;50.828;4.700;2023-07-08T06:39:34;6.75;;;4.75;;
17151;SDS011;8691;50.828;4.700;2023-07-08T06:42:01;7.72;;;4.82;;
17151;SDS011;8691;50.828;4.700;2023-07-08T06:44:28;10.35;;;4.70;;
17151;SDS011;8691;50.828;4.700;2023-07-08T06:46:55;4.57;;;4.18;;
17151;SDS011;8691;50.828;4.700;2023-07-08T06:49:22;5.45;;;4.38;;
17151;SDS011;8691;50.828;4.700;2023-07-08T06:51:49;7.10;;;4.47;;
17151;SDS011;8691;50.828;4.700;2023-07-08T06:54:17;6.93;;;4.25;;
17151;SDS011;8691;50.828;4.700;2023-07-08T06:56:44;4.60;;;4.10;;
17151;SDS011;8691;50.828;4.700;2023-07-08T06:59:11;5.28;;;4.78;;
17151;SDS011;8691;50.828;4.700;2023-07-08T07:01:39;5.38;;;4.30;;
17151;SDS011;8691;50.828;4.700;2023-07-08T07:04:06;4.88;;;3.83;;
17151;SDS011;8691;50.828;4.700;2023-07-08T07:06:33;5.50;;;4.30;;
17151;SDS011;8691;50.828;4.700;2023-07-08T07:09:00;5.55;;;4.50;;
17151;SDS011;8691;50.828;4.700;2023-07-08T07:11:28;5.75;;;4.15;;
17151;SDS011;8691;50.828;4.700;2023-07-08T07:13:55;6.32;;;4.50;;
17151;SDS011;8691;50.828;4.700;2023-07-08T07:16:23;4.25;;;3.85;;
17151;SDS011;8691;50.828;4.700;2023-07-08T07:18:51;8.10;;;4.30;;
17151;SDS011;8691;50.828;4.700;2023-07-08T07:21:17;5.35;;;4.40;;
17151;SDS011;8691;50.828;4.700;2023-07-08T07:23:44;4.87;;;4.47;;
17151;SDS011;8691;50.828;4.700;2023-07-08T07:26:11;4.93;;;4.40;;
17151;SDS011;8691;50.828;4.700;2023-07-08T07:28:38;4.65;;;3.80;;
17151;SDS011;8691;50.828;4.700;2023-07-08T07:31:06;5.00;;;4.32;;
17151;SDS011;8691;50.828;4.700;2023-07-08T07:33:33;6.93;;;4.55;;
17151;SDS011;8691;50.828;4.700;2023-07-08T07:36:00;4.50;;;4.10;;
17151;SDS011;8691;50.828;4.700;2023-07-08T07:38:28;5.70;;;3.92;;
17151;SDS011;8691;50.828;4.700;2023-07-08T07:40:56;5.22;;;4.38;;
17151;SDS011;8691;50.828;4.700;2023-07-08T07:43:23;5.05;;;4.12;;
17151;SDS011;8691;50.828;4.700;2023-07-08T07:45:51;5.03;;;4.18;;
17151;SDS011;8691;50.828;4.700;2023-07-08T07:48:18;4.90;;;4.30;;
17151;SDS011;8691;50.828;4.700;2023-07-08T07:50:46;5.00;;;4.60;;
17151;SDS011;8691;50.828;4.700;2023-07-08T07:53:12;4.87;;;4.30;;
17151;SDS011;8691;50.828;4.700;2023-07-08T07:55:39;5.28;;;4.50;;
17151;SDS011;8691;50.828;4.700;2023-07-08T07:58:06;6.27;;;3.73;;
17151;SDS011;8691;50.828;4.700;2023-07-08T08:00:33;4.87;;;4.23;;
17151;SDS011;8691;50.828;4.700;2023-07-08T08:03:00;5.07;;;4.45;;
17151;SDS011;8691;50.828;4.700;2023-07-08T08:05:27;5.83;;;4.37;;
17151;SDS011;8691;50.828;4.700;2023-07-08T08:07:54;5.97;;;4.37;;
17151;SDS011;8691;50.828;4.700;2023-07-08T08:10:22;4.83;;;4.30;;
17151;SDS011;8691;50.828;4.700;2023-07-08T08:12:49;5.80;;;4.60;;
17151;SDS011;8691;50.828;4.700;2023-07-08T08:15:16;5.50;;;4.70;;
17151;SDS011;8691;50.828;4.700;2023-07-08T08:17:42;5.20;;;4.30;;
17151;SDS011;8691;50.828;4.700;2023-07-08T08:20:09;4.60;;;4.20;;
17151;SDS011;8691;50.828;4.700;2023-07-08T08:22:36;7.15;;;4.60;;
17151;SDS011;8691;50.828;4.700;2023-07-08T08:25:03;6.13;;;4.87;;
17151;SDS011;8691;50.828;4.700;2023-07-08T08:27:30;5.87;;;4.90;;
17151;SDS011;8691;50.828;4.700;2023-07-08T08:29:57;6.88;;;4.88;;
17151;SDS011;8691;50.828;4.700;2023-07-08T08:32:24;6.17;;;4.80;;
17151;SDS011;8691;50.828;4.700;2023-07-08T08:34:51;5.13;;;4.10;;
17151;SDS011;8691;50.828;4.700;2023-07-08T08:37:18;5.40;;;4.60;;
17151;SDS011;8691;50.828;4.700;2023-07-08T08:39:45;6.13;;;4.63;;
17151;SDS011;8691;50.828;4.700;2023-07-08T08:45:02;6.07;;;4.97;;
17151;SDS011;8691;50.828;4.700;2023-07-08T08:52:53;5.60;;;4.93;;
17151;SDS011;8691;50.828;4.700;2023-07-08T08:55:20;5.25;;;4.70;;
17151;SDS011;8691;50.828;4.700;2023-07-08T09:00:16;5.22;;;4.72;;
17151;SDS011;8691;50.828;4.700;2023-07-08T09:02:42;7.40;;;4.73;;
17151;SDS011;8691;50.828;4.700;2023-07-08T09:05:20;4.70;;;4.30;;
17151;SDS011;8691;50.828;4.700;2023-07-08T09:10:49;6.12;;;4.80;;
17151;SDS011;8691;50.828;4.700;2023-07-08T09:13:31;4.60;;;4.20;;
17151;SDS011;8691;50.828;4.700;2023-07-08T09:15:59;6.23;;;4.03;;
17151;SDS011;8691;50.828;4.700;2023-07-08T09:18:27;4.80;;;4.07;;
17151;SDS011;8691;50.828;4.700;2023-07-08T09:20:51;5.40;;;4.13;;
17151;SDS011;8691;50.828;4.700;2023-07-08T09:23:19;5.20;;;4.70;;
17151;SDS011;8691;50.828;4.700;2023-07-08T09:25:56;5.43;;;4.07;;
17151;SDS011;8691;50.828;4.700;2023-07-08T09:28:34;5.47;;;4.88;;
17151;SDS011;8691;50.828;4.700;2023-07-08T09:30:51;5.43;;;4.47;;
17151;SDS011;8691;50.828;4.700;2023-07-08T09:33:17;5.10;;;4.60;;
17151;SDS011;8691;50.828;4.700;2023-07-08T09:35:45;4.83;;;4.43;;
17151;SDS011;8691;50.828;4.700;2023-07-08T09:38:21;6.50;;;3.97;;
17151;SDS011;8691;50.828;4.700;2023-07-08T09:40:47;5.50;;;4.50;;
17151;SDS011;8691;50.828;4.700;2023-07-08T09:46:04;5.77;;;4.70;;
17151;SDS011;8691;50.828;4.700;2023-07-08T09:48:35;4.50;;;4.10;;
17151;SDS011;8691;50.828;4.700;2023-07-08T09:51:01;8.17;;;4.00;;
17151;SDS011;8691;50.828;4.700;2023-07-08T09:53:27;4.93;;;4.43;;
17151;SDS011;8691;50.828;4.700;2023-07-08T09:55:58;5.00;;;4.30;;
17151;SDS011;8691;50.828;4.700;2023-07-08T09:58:25;4.93;;;4.43;;
17151;SDS011;8691;50.828;4.700;2023-07-08T10:00:53;6.03;;;4.70;;
17151;SDS011;8691;50.828;4.700;2023-07-08T10:03:22;4.87;;;4.47;;
17151;SDS011;8691;50.828;4.700;2023-07-08T10:05:48;6.20;;;4.90;;
17151;SDS011;8691;50.828;4.700;2023-07-08T10:08:16;5.00;;;4.25;;
17151;SDS011;8691;50.828;4.700;2023-07-08T10:10:42;5.00;;;3.90;;
17151;SDS011;8691;50.828;4.700;2023-07-08T10:13:23;5.30;;;4.43;;
17151;SDS011;8691;50.828;4.700;2023-07-08T10:15:49;5.22;;;4.72;;
17151;SDS011;8691;50.828;4.700;2023-07-08T10:18:20;6.37;;;4.73;;
17151;SDS011;8691;50.828;4.700;2023-07-08T10:20:52;6.97;;;4.97;;
17151;SDS011;8691;50.828;4.700;2023-07-08T10:26:00;7.00;;;4.35;;
17151;SDS011;8691;50.828;4.700;2023-07-08T10:28:28;4.67;;;4.27;;
17151;SDS011;8691;50.828;4.700;2023-07-08T10:36:24;4.73;;;4.33;;
17151;SDS011;8691;50.828;4.700;2023-07-08T10:38:56;5.20;;;4.70;;
17151;SDS011;8691;50.828;4.700;2023-07-08T10:41:25;5.30;;;3.87;;
17151;SDS011;8691;50.828;4.700;2023-07-08T10:46:26;6.07;;;4.27;;
17151;SDS011;8691;50.828;4.700;2023-07-08T10:59:52;6.13;;;4.90;;
17151;SDS011;8691;50.828;4.700;2023-07-08T11:05:33;6.03;;;5.10;;
17151;SDS011;8691;50.828;4.700;2023-07-08T11:08:01;8.50;;;4.68;;
17151;SDS011;8691;50.828;4.700;2023-07-08T11:10:32;6.68;;;4.90;;
17151;SDS011;8691;50.828;4.700;2023-07-08T11:13:05;8.25;;;4.38;;
17151;SDS011;8691;50.828;4.700;2023-07-08T11:15:43;6.38;;;4.82;;
17151;SDS011;8691;50.828;4.700;2023-07-08T11:18:08;6.32;;;4.95;;
17151;SDS011;8691;50.828;4.700;2023-07-08T11:20:38;7.40;;;4.80;;
17151;SDS011;8691;50.828;4.700;2023-07-08T11:25:42;8.93;;;4.70;;
17151;SDS011;8691;50.828;4.700;2023-07-08T11:28:10;5.78;;;4.90;;
17151;SDS011;8691;50.828;4.700;2023-07-08T11:30:36;7.50;;;4.97;;
17151;SDS011;8691;50.828;4.700;2023-07-08T11:33:03;5.93;;;4.90;;
17151;SDS011;8691;50.828;4.700;2023-07-08T11:35:49;5.70;;;4.22;;
17151;SDS011;8691;50.828;4.700;2023-07-08T11:38:16;8.75;;;4.50;;
17151;SDS011;8691;50.828;4.700;2023-07-08T11:40:52;7.27;;;5.10;;
17151;SDS011;8691;50.828;4.700;2023-07-08T11:43:27;6.60;;;4.90;;
17151;SDS011;8691;50.828;4.700;2023-07-08T11:45:50;6.45;;;4.53;;
17151;SDS011;8691;50.828;4.700;2023-07-08T11:48:18;7.88;;;4.57;;
17151;SDS011;8691;50.828;4.700;2023-07-08T11:50:45;6.60;;;4.57;;
17151;SDS011;8691;50.828;4.700;2023-07-08T11:53:30;7.77;;;4.80;;
17151;SDS011;8691;50.828;4.700;2023-07-08T11:55:53;7.15;;;4.75;;
17151;SDS011;8691;50.828;4.700;2023-07-08T12:00:58;7.40;;;4.60;;
17151;SDS011;8691;50.828;4.700;2023-07-08T12:08:54;6.47;;;4.28;;
17151;SDS011;8691;50.828;4.700;2023-07-08T12:11:32;5.40;;;3.90;;
17151;SDS011;8691;50.828;4.700;2023-07-08T12:13:58;7.37;;;4.50;;
17151;SDS011;8691;50.828;4.700;2023-07-08T12:16:25;6.13;;;4.47;;
17151;SDS011;8691;50.828;4.700;2023-07-08T12:18:52;5.15;;;3.45;;
17151;SDS011;8691;50.828;4.700;2023-07-08T12:21:21;5.97;;;3.80;;
17151;SDS011;8691;50.828;4.700;2023-07-08T12:23:46;7.10;;;4.47;;
17151;SDS011;8691;50.828;4.700;2023-07-08T12:26:14;5.55;;;4.20;;
17151;SDS011;8691;50.828;4.700;2023-07-08T12:28:42;6.18;;;3.80;;
17151;SDS011;8691;50.828;4.700;2023-07-08T12:31:17;5.20;;;3.70;;
17151;SDS011;8691;50.828;4.700;2023-07-08T12:33:44;6.33;;;4.27;;
17151;SDS011;8691;50.828;4.700;2023-07-08T12:36:15;6.95;;;3.90;;
17151;SDS011;8691;50.828;4.700;2023-07-08T12:38:40;6.25;;;3.97;;
17151;SDS011;8691;50.828;4.700;2023-07-08T12:41:09;6.43;;;3.38;;
17151;SDS011;8691;50.828;4.700;2023-07-08T12:43:36;5.63;;;3.60;;
17151;SDS011;8691;50.828;4.700;2023-07-08T12:46:03;5.85;;;3.90;;
17151;SDS011;8691;50.828;4.700;2023-07-08T12:48:34;8.82;;;3.47;;
17151;SDS011;8691;50.828;4.700;2023-07-08T12:51:05;7.57;;;3.45;;
17151;SDS011;8691;50.828;4.700;2023-07-08T12:53:32;8.32;;;3.10;;
17151;SDS011;8691;50.828;4.700;2023-07-08T12:55:59;6.60;;;3.22;;
17151;SDS011;8691;50.828;4.700;2023-07-08T12:58:28;4.85;;;3.35;;
17151;SDS011;8691;50.828;4.700;2023-07-08T13:00:55;5.28;;;2.35;;
17151;SDS011;8691;50.828;4.700;2023-07-08T13:03:26;3.70;;;2.20;;
17151;SDS011;8691;50.828;4.700;2023-07-08T13:05:49;3.53;;;2.07;;
17151;SDS011;8691;50.828;4.700;2023-07-08T13:08:17;5.10;;;2.60;;
17151;SDS011;8691;50.828;4.700;2023-07-08T13:10:42;4.57;;;1.90;;
17151;SDS011;8691;50.828;4.700;2023-07-08T13:13:23;3.50;;;2.08;;
17151;SDS011;8691;50.828;4.700;2023-07-08T13:15:52;11.43;;;3.17;;
17151;SDS011;8691;50.828;4.700;2023-07-08T13:18:33;8.35;;;2.80;;
17151;SDS011;8691;50.828;4.700;2023-07-08T13:21:00;4.03;;;2.10;;
17151;SDS011;8691;50.828;4.700;2023-07-08T13:23:27;6.45;;;2.40;;
17151;SDS011;8691;50.828;4.700;2023-07-08T13:25:54;7.55;;;2.78;;
17151;SDS011;8691;50.828;4.700;2023-07-08T13:28:26;4.15;;;2.30;;
17151;SDS011;8691;50.828;4.700;2023-07-08T13:30:53;6.40;;;2.70;;
17151;SDS011;8691;50.828;4.700;2023-07-08T13:33:22;4.70;;;2.50;;
17151;SDS011;8691;50.828;4.700;2023-07-08T13:35:50;6.10;;;2.30;;
17151;SDS011;8691;50.828;4.700;2023-07-08T13:38:17;6.32;;;2.40;;
17151;SDS011;8691;50.828;4.700;2023-07-08T13:40:47;5.47;;;2.33;;
17151;SDS011;8691;50.828;4.700;2023-07-08T13:43:10;6.20;;;2.70;;
17151;SDS011;8691;50.828;4.700;2023-07-08T13:45:37;4.70;;;2.72;;
17151;SDS011;8691;50.828;4.700;2023-07-08T13:48:11;7.10;;;2.80;;
17151;SDS011;8691;50.828;4.700;2023-07-08T13:50:45;4.72;;;2.80;;
17151;SDS011;8691;50.828;4.700;2023-07-08T13:53:17;3.78;;;2.62;;
17151;SDS011;8691;50.828;4.700;2023-07-08T13:55:43;4.97;;;2.35;;
17151;SDS011;8691;50.828;4.700;2023-07-08T13:58:13;5.17;;;3.00;;
17151;SDS011;8691;50.828;4.700;2023-07-08T14:00:38;5.70;;;3.00;;
17151;SDS011;8691;50.828;4.700;2023-07-08T14:03:05;5.50;;;2.93;;
17151;SDS011;8691;50.828;4.700;2023-07-08T14:05:31;4.72;;;2.65;;
17151;SDS011;8691;50.828;4.700;2023-07-08T14:07:59;7.20;;;2.40;;
17151;SDS011;8691;50.828;4.700;2023-07-08T14:10:25;6.60;;;3.03;;
17151;SDS011;8691;50.828;4.700;2023-07-08T14:12:52;4.25;;;3.05;;
17151;SDS011;8691;50.828;4.700;2023-07-08T14:15:19;6.03;;;3.03;;
17151;SDS011;8691;50.828;4.700;2023-07-08T14:17:46;6.90;;;2.70;;
17151;SDS011;8691;50.828;4.700;2023-07-08T14:20:15;4.53;;;2.92;;
17151;SDS011;8691;50.828;4.700;2023-07-08T14:22:41;4.57;;;2.62;;
17151;SDS011;8691;50.828;4.700;2023-07-08T14:25:08;6.37;;;2.90;;
17151;SDS011;8691;50.828;4.700;2023-07-08T14:27:34;5.38;;;2.60;;
17151;SDS011;8691;50.828;4.700;2023-07-08T14:30:01;5.63;;;2.93;;
17151;SDS011;8691;50.828;4.700;2023-07-08T14:32:29;5.88;;;3.00;;
17151;SDS011;8691;50.828;4.700;2023-07-08T14:34:56;6.10;;;2.80;;
17151;SDS011;8691;50.828;4.700;2023-07-08T14:37:22;6.25;;;2.67;;
17151;SDS011;8691;50.828;4.700;2023-07-08T14:39:49;3.62;;;2.45;;
17151;SDS011;8691;50.828;4.700;2023-07-08T14:42:17;3.88;;;2.60;;
17151;SDS011;8691;50.828;4.700;2023-07-08T14:44:46;3.30;;;2.50;;
17151;SDS011;8691;50.828;4.700;2023-07-08T14:47:13;5.07;;;2.93;;
17151;SDS011;8691;50.828;4.700;2023-07-08T14:49:40;5.80;;;2.92;;
17151;SDS011;8691;50.828;4.700;2023-07-08T14:52:07;3.78;;;2.62;;
17151;SDS011;8691;50.828;4.700;2023-07-08T14:54:35;5.40;;;2.77;;
17151;SDS011;8691;50.828;4.700;2023-07-08T14:57:02;7.97;;;3.00;;
17151;SDS011;8691;50.828;4.700;2023-07-08T14:59:30;4.75;;;2.80;;
17151;SDS011;8691;50.828;4.700;2023-07-08T15:01:57;7.60;;;3.10;;
17151;SDS011;8691;50.828;4.700;2023-07-08T15:04:23;4.87;;;3.40;;
17151;SDS011;8691;50.828;4.700;2023-07-08T15:06:50;4.20;;;3.08;;
17151;SDS011;8691;50.828;4.700;2023-07-08T15:09:17;4.18;;;2.60;;
17151;SDS011;8691;50.828;4.700;2023-07-08T15:11:44;4.23;;;2.80;;
17151;SDS011;8691;50.828;4.700;2023-07-08T15:14:21;4.75;;;2.90;;
17151;SDS011;8691;50.828;4.700;2023-07-08T15:16:50;3.40;;;2.72;;
17151;SDS011;8691;50.828;4.700;2023-07-08T15:19:18;6.57;;;2.83;;
17151;SDS011;8691;50.828;4.700;2023-07-08T15:21:44;3.85;;;2.70;;
17151;SDS011;8691;50.828;4.700;2023-07-08T15:24:12;3.55;;;2.78;;
17151;SDS011;8691;50.828;4.700;2023-07-08T15:26:39;4.77;;;3.00;;
17151;SDS011;8691;50.828;4.700;2023-07-08T15:29:06;5.88;;;2.95;;
17151;SDS011;8691;50.828;4.700;2023-07-08T15:31:33;3.33;;;2.60;;
17151;SDS011;8691;50.828;4.700;2023-07-08T15:34:00;3.45;;;2.85;;
17151;SDS011;8691;50.828;4.700;2023-07-08T15:36:28;4.25;;;3.00;;
17151;SDS011;8691;50.828;4.700;2023-07-08T15:38:55;9.10;;;2.83;;
17151;SDS011;8691;50.828;4.700;2023-07-08T15:41:23;4.10;;;2.95;;
17151;SDS011;8691;50.828;4.700;2023-07-08T15:43:49;4.97;;;3.10;;
17151;SDS011;8691;50.828;4.700;2023-07-08T15:46:16;4.70;;;3.20;;
17151;SDS011;8691;50.828;4.700;2023-07-08T15:48:44;4.50;;;2.97;;
17151;SDS011;8691;50.828;4.700;2023-07-08T15:51:15;3.30;;;2.78;;
17151;SDS011;8691;50.828;4.700;2023-07-08T15:53:41;5.12;;;3.22;;
17151;SDS011;8691;50.828;4.700;2023-07-08T15:56:10;4.37;;;3.27;;
17151;SDS011;8691;50.828;4.700;2023-07-08T15:58:36;5.47;;;3.38;;